sensor_id;sensor_type;location;lat;lon;timestamp;pressure;altitude;pressure_sealevel;temperature;humidity
73063;BME280;61230;46.328;19.972;2022-12-15T00:02:42;99712.66;;;2.69;100.00
73063;BME280;61230;46.328;19.972;2022-12-15T00:05:28;99706.00;;;2.65;100.00
73063;BME280;61230;46.328;19.972;2022-12-15T00:08:16;99710.97;;;2.68;100.00
73063;BME280;61230;46.328;19.972;2022-12-15T00:11:03;99706.41;;;2.71;100.00
73063;BME280;61230;46.328;19.972;2022-12-15T00:13:49;99716.78;;;2.71;100.00
73063;BME280;61230;46.328;19.972;2022-12-15T00:16:35;99714.19;;;2.71;100.00
73063;BME280;61230;46.328;19.972;2022-12-15T00:19:21;99720.31;;;2.70;100.00
73063;BME280;61230;46.328;19.972;2022-12-15T00:22:07;99722.06;;;2.70;100.00
73063;BME280;61230;46.328;19.972;2022-12-15T00:24:53;99714.50;;;2.67;100.00
73063;BME280;61230;46.328;19.972;2022-12-15T00:27:40;99711.31;;;2.63;100.00
73063;BME280;61230;46.328;19.972;2022-12-15T00:30:26;99706.13;;;2.63;100.00
73063;BME280;61230;46.328;19.972;2022-12-15T00:33:16;99709.31;;;2.67;100.00
73063;BME280;61230;46.328;19.972;2022-12-15T00:36:03;99717.56;;;2.61;100.00
73063;BME280;61230;46.328;19.972;2022-12-15T00:38:49;99715.56;;;2.64;100.00
73063;BME280;61230;46.328;19.972;2022-12-15T00:41:17;99705.00;;;2.55;100.00
73063;BME280;61230;46.328;19.972;2022-12-15T00:43:44;99707.16;;;2.61;100.00
73063;BME280;61230;46.328;19.972;2022-12-15T00:46:13;99702.06;;;2.59;100.00
73063;BME280;61230;46.328;19.972;2022-12-15T00:48:59;99703.53;;;2.63;100.00
73063;BME280;61230;46.328;19.972;2022-12-15T00:51:27;99706.34;;;2.60;100.00
73063;BME280;61230;46.328;19.972;2022-12-15T00:54:13;99706.22;;;2.62;100.00
73063;BME280;61230;46.328;19.972;2022-12-15T00:56:59;99704.94;;;2.67;100.00
73063;BME280;61230;46.328;19.972;2022-12-15T00:59:45;99703.81;;;2.59;100.00
73063;BME280;61230;46.328;19.972;2022-12-15T01:02:31;99711.63;;;2.59;100.00
73063;BME280;61230;46.328;19.972;2022-12-15T01:05:24;99709.66;;;2.62;100.00
73063;BME280;61230;46.328;19.972;2022-12-15T01:08:10;99714.75;;;2.64;100.00
73063;BME280;61230;46.328;19.972;2022-12-15T01:10:59;99710.97;;;2.68;100.00
73063;BME280;61230;46.328;19.972;2022-12-15T01:13:45;99714.28;;;2.70;100.00
73063;BME280;61230;46.328;19.972;2022-12-15T01:16:31;99717.94;;;2.67;100.00
73063;BME280;61230;46.328;19.972;2022-12-15T01:19:18;99721.78;;;2.74;100.00
73063;BME280;61230;46.328;19.972;2022-12-15T01:22:05;99726.97;;;2.74;100.00
73063;BME280;61230;46.328;19.972;2022-12-15T01:24:33;99725.91;;;2.77;100.00
73063;BME280;61230;46.328;19.972;2022-12-15T01:27:01;99730.41;;;2.75;100.00
73063;BME280;61230;46.328;19.972;2022-12-15T01:29:28;99735.69;;;2.73;100.00
73063;BME280;61230;46.328;19.972;2022-12-15T01:31:56;99736.19;;;2.78;100.00
73063;BME280;61230;46.328;19.972;2022-12-15T01:34:23;99735.28;;;2.67;100.00
73063;BME280;61230;46.328;19.972;2022-12-15T01:36:51;99733.31;;;2.70;100.00
73063;BME280;61230;46.328;19.972;2022-12-15T01:39:19;99724.47;;;2.73;100.00
73063;BME280;61230;46.328;19.972;2022-12-15T01:41:46;99732.38;;;2.71;100.00
73063;BME280;61230;46.328;19.972;2022-12-15T01:44:18;99729.34;;;2.77;100.00
73063;BME280;61230;46.328;19.972;2022-12-15T01:46:48;99728.50;;;2.77;100.00
73063;BME280;61230;46.328;19.972;2022-12-15T01:49:23;99737.03;;;2.79;100.00
73063;BME280;61230;46.328;19.972;2022-12-15T01:52:00;99738.78;;;2.78;100.00
73063;BME280;61230;46.328;19.972;2022-12-15T01:54:34;99733.38;;;2.81;100.00
73063;BME280;61230;46.328;19.972;2022-12-15T01:57:12;99737.75;;;2.81;100.00
73063;BME280;61230;46.328;19.972;2022-12-15T01:59:48;99745.56;;;2.81;100.00
73063;BME280;61230;46.328;19.972;2022-12-15T02:02:19;99746.47;;;2.80;100.00
73063;BME280;61230;46.328;19.972;2022-12-15T02:04:50;99746.34;;;2.81;100.00
73063;BME280;61230;46.328;19.972;2022-12-15T02:07:19;99746.34;;;2.81;100.00
73063;BME280;61230;46.328;19.972;2022-12-15T02:09:47;99748.25;;;2.79;100.00
73063;BME280;61230;46.328;19.972;2022-12-15T02:12:54;99748.97;;;2.81;100.00
73063;BME280;61230;46.328;19.972;2022-12-15T02:15:37;99750.63;;;2.82;100.00
73063;BME280;61230;46.328;19.972;2022-12-15T02:32:15;99744.28;;;2.86;100.00
73063;BME280;61230;46.328;19.972;2022-12-15T02:34:58;99742.84;;;2.82;100.00
73063;BME280;61230;46.328;19.972;2022-12-15T02:37:33;99735.97;;;2.81;100.00
73063;BME280;61230;46.328;19.972;2022-12-15T02:40:05;99754.06;;;2.83;100.00
73063;BME280;61230;46.328;19.972;2022-12-15T02:42:34;99743.75;;;2.81;100.00
73063;BME280;61230;46.328;19.972;2022-12-15T02:45:14;99747.81;;;2.85;100.00
73063;BME280;61230;46.328;19.972;2022-12-15T02:56:16;99750.75;;;2.81;100.00
73063;BME280;61230;46.328;19.972;2022-12-15T03:01:31;99739.63;;;2.79;100.00
73063;BME280;61230;46.328;19.972;2022-12-15T03:04:03;99740.44;;;2.79;100.00
73063;BME280;61230;46.328;19.972;2022-12-15T03:06:32;99737.84;;;2.79;100.00
73063;BME280;61230;46.328;19.972;2022-12-15T03:09:00;99736.94;;;2.80;100.00
73063;BME280;61230;46.328;19.972;2022-12-15T03:11:27;99734.03;;;2.72;100.00
73063;BME280;61230;46.328;19.972;2022-12-15T03:13:56;99730.72;;;2.70;100.00
73063;BME280;61230;46.328;19.972;2022-12-15T03:16:24;99728.72;;;2.74;100.00
73063;BME280;61230;46.328;19.972;2022-12-15T03:18:51;99731.31;;;2.74;100.00
73063;BME280;61230;46.328;19.972;2022-12-15T03:21:19;99725.63;;;2.69;100.00
73063;BME280;61230;46.328;19.972;2022-12-15T03:23:47;99734.34;;;2.68;100.00
73063;BME280;61230;46.328;19.972;2022-12-15T03:26:14;99724.09;;;2.66;100.00
73063;BME280;61230;46.328;19.972;2022-12-15T03:28:42;99724.09;;;2.66;100.00
73063;BME280;61230;46.328;19.972;2022-12-15T03:31:10;99726.41;;;2.58;100.00
73063;BME280;61230;46.328;19.972;2022-12-15T03:33:37;99724.09;;;2.54;100.00
73063;BME280;61230;46.328;19.972;2022-12-15T03:36:06;99729.91;;;2.57;100.00
73063;BME280;61230;46.328;19.972;2022-12-15T03:38:33;99730.84;;;2.56;100.00
73063;BME280;61230;46.328;19.972;2022-12-15T03:41:01;99741.13;;;2.58;100.00
73063;BME280;61230;46.328;19.972;2022-12-15T03:43:28;99750.91;;;2.54;100.00
73063;BME280;61230;46.328;19.972;2022-12-15T03:45:57;99756.94;;;2.55;100.00
73063;BME280;61230;46.328;19.972;2022-12-15T03:48:24;99750.28;;;2.51;100.00
73063;BME280;61230;46.328;19.972;2022-12-15T03:50:52;99756.31;;;2.51;100.00
73063;BME280;61230;46.328;19.972;2022-12-15T03:53:20;99764.22;;;2.50;100.00
73063;BME280;61230;46.328;19.972;2022-12-15T03:55:47;99759.63;;;2.53;100.00
73063;BME280;61230;46.328;19.972;2022-12-15T03:58:15;99766.56;;;2.53;100.00
73063;BME280;61230;46.328;19.972;2022-12-15T04:00:43;99779.66;;;2.51;100.00
73063;BME280;61230;46.328;19.972;2022-12-15T04:03:10;99792.31;;;2.56;100.00
73063;BME280;61230;46.328;19.972;2022-12-15T04:05:39;99809.28;;;2.49;100.00
73063;BME280;61230;46.328;19.972;2022-12-15T04:08:06;99815.91;;;2.53;100.00
73063;BME280;61230;46.328;19.972;2022-12-15T04:10:34;99819.03;;;2.58;100.00
73063;BME280;61230;46.328;19.972;2022-12-15T04:15:32;99822.66;;;2.68;100.00
73063;BME280;61230;46.328;19.972;2022-12-15T04:18:01;99826.50;;;2.75;100.00
73063;BME280;61230;46.328;19.972;2022-12-15T04:20:29;99830.53;;;2.79;100.00
73063;BME280;61230;46.328;19.972;2022-12-15T04:22:57;99834.81;;;2.80;100.00
73063;BME280;61230;46.328;19.972;2022-12-15T04:25:25;99832.91;;;2.82;100.00
73063;BME280;61230;46.328;19.972;2022-12-15T04:28:12;99838.94;;;2.82;100.00
73063;BME280;61230;46.328;19.972;2022-12-15T04:31:02;99840.63;;;2.83;100.00
73063;BME280;61230;46.328;19.972;2022-12-15T04:33:51;99851.50;;;2.88;100.00
73063;BME280;61230;46.328;19.972;2022-12-15T04:36:39;99859.84;;;2.81;100.00
73063;BME280;61230;46.328;19.972;2022-12-15T04:39:27;99868.03;;;2.87;100.00
73063;BME280;61230;46.328;19.972;2022-12-15T04:42:14;99866.06;;;2.91;100.00
73063;BME280;61230;46.328;19.972;2022-12-15T04:45:02;99867.81;;;2.90;100.00
73063;BME280;61230;46.328;19.972;2022-12-15T04:47:49;99871.13;;;2.92;100.00
73063;BME280;61230;46.328;19.972;2022-12-15T04:50:35;99869.28;;;2.95;100.00
73063;BME280;61230;46.328;19.972;2022-12-15T04:53:22;99876.12;;;2.96;100.00
73063;BME280;61230;46.328;19.972;2022-12-15T04:56:10;99873.66;;;2.94;100.00
73063;BME280;61230;46.328;19.972;2022-12-15T04:58:58;99879.87;;;2.92;100.00
73063;BME280;61230;46.328;19.972;2022-12-15T05:01:44;99881.22;;;2.84;100.00
73063;BME280;61230;46.328;19.972;2022-12-15T05:04:31;99888.81;;;2.87;100.00
73063;BME280;61230;46.328;19.972;2022-12-15T05:07:17;99886.22;;;2.87;100.00
73063;BME280;61230;46.328;19.972;2022-12-15T05:10:05;99896.72;;;2.86;100.00
73063;BME280;61230;46.328;19.972;2022-12-15T05:12:51;99894.97;;;2.86;100.00
73063;BME280;61230;46.328;19.972;2022-12-15T05:15:37;99898.16;;;2.90;100.00
73063;BME280;61230;46.328;19.972;2022-12-15T05:18:24;99899.94;;;2.89;100.00
73063;BME280;61230;46.328;19.972;2022-12-15T05:21:10;99898.69;;;2.95;100.00
73063;BME280;61230;46.328;19.972;2022-12-15T05:23:56;99903.66;;;2.98;100.00
73063;BME280;61230;46.328;19.972;2022-12-15T05:26:42;99902.72;;;2.99;100.00
73063;BME280;61230;46.328;19.972;2022-12-15T05:29:28;99906.25;;;2.98;100.00
73063;BME280;61230;46.328;19.972;2022-12-15T05:32:15;99906.38;;;2.97;100.00
73063;BME280;61230;46.328;19.972;2022-12-15T05:34:43;99910.44;;;3.01;100.00
73063;BME280;61230;46.328;19.972;2022-12-15T05:37:10;99910.31;;;3.02;100.00
73063;BME280;61230;46.328;19.972;2022-12-15T05:39:38;99910.22;;;3.04;100.00
73063;BME280;61230;46.328;19.972;2022-12-15T05:42:06;99905.84;;;3.04;100.00
73063;BME280;61230;46.328;19.972;2022-12-15T05:44:34;99907.50;;;3.05;100.00
73063;BME280;61230;46.328;19.972;2022-12-15T05:47:02;99922.47;;;3.02;100.00
73063;BME280;61230;46.328;19.972;2022-12-15T05:49:31;99926.53;;;3.06;100.00
73063;BME280;61230;46.328;19.972;2022-12-15T05:51:59;99936.09;;;3.05;100.00
73063;BME280;61230;46.328;19.972;2022-12-15T05:54:27;99938.56;;;3.07;100.00
73063;BME280;61230;46.328;19.972;2022-12-15T05:56:55;99937.56;;;3.09;100.00
73063;BME280;61230;46.328;19.972;2022-12-15T05:59:22;99936.53;;;3.12;99.97
73063;BME280;61230;46.328;19.972;2022-12-15T06:01:50;99940.75;;;3.13;98.85
73063;BME280;61230;46.328;19.972;2022-12-15T06:04:18;99944.31;;;3.12;98.74
73063;BME280;61230;46.328;19.972;2022-12-15T06:06:45;99954.91;;;3.09;98.61
73063;BME280;61230;46.328;19.972;2022-12-15T06:09:13;99943.34;;;3.13;98.13
73063;BME280;61230;46.328;19.972;2022-12-15T06:11:42;99946.16;;;3.10;98.13
73063;BME280;61230;46.328;19.972;2022-12-15T06:14:09;99949.31;;;3.15;97.87
73063;BME280;61230;46.328;19.972;2022-12-15T06:16:37;99946.16;;;3.10;97.90
73063;BME280;61230;46.328;19.972;2022-12-15T06:19:17;99949.59;;;3.10;97.73
73063;BME280;61230;46.328;19.972;2022-12-15T06:21:45;99953.16;;;3.09;97.69
73063;BME280;61230;46.328;19.972;2022-12-15T06:24:13;99955.97;;;3.06;97.89
73063;BME280;61230;46.328;19.972;2022-12-15T06:26:40;99953.97;;;3.10;98.08
73063;BME280;61230;46.328;19.972;2022-12-15T06:29:11;99957.09;;;3.15;97.25
73063;BME280;61230;46.328;19.972;2022-12-15T06:31:39;99966.66;;;3.14;97.35
73063;BME280;61230;46.328;19.972;2022-12-15T06:34:10;99971.75;;;3.16;97.59
73063;BME280;61230;46.328;19.972;2022-12-15T06:36:38;99977.56;;;3.19;97.23
73063;BME280;61230;46.328;19.972;2022-12-15T06:39:07;99975.09;;;3.18;97.08
73063;BME280;61230;46.328;19.972;2022-12-15T06:41:38;99983.91;;;3.15;97.50
73063;BME280;61230;46.328;19.972;2022-12-15T06:44:06;99985.16;;;3.22;97.23
73063;BME280;61230;46.328;19.972;2022-12-15T06:46:34;99984.31;;;3.22;97.61
73063;BME280;61230;46.328;19.972;2022-12-15T06:49:02;99983.28;;;3.24;97.63
73063;BME280;61230;46.328;19.972;2022-12-15T06:51:29;99987.63;;;3.24;97.58
73063;BME280;61230;46.328;19.972;2022-12-15T06:53:58;99989.94;;;3.28;97.25
73063;BME280;61230;46.328;19.972;2022-12-15T06:56:28;99994.59;;;3.36;96.64
73063;BME280;61230;46.328;19.972;2022-12-15T06:59:05;100006.78;;;3.35;96.59
73063;BME280;61230;46.328;19.972;2022-12-15T07:01:40;100010.22;;;3.36;96.54
73063;BME280;61230;46.328;19.972;2022-12-15T07:04:08;100020.41;;;3.39;96.56
73063;BME280;61230;46.328;19.972;2022-12-15T07:06:38;100036.00;;;3.39;96.83
73063;BME280;61230;46.328;19.972;2022-12-15T07:09:09;100046.19;;;3.42;96.35
73063;BME280;61230;46.328;19.972;2022-12-15T07:11:38;100050.16;;;3.47;96.24
73063;BME280;61230;46.328;19.972;2022-12-15T07:14:08;100058.66;;;3.49;96.21
73063;BME280;61230;46.328;19.972;2022-12-15T07:16:36;100055.97;;;3.51;96.17
73063;BME280;61230;46.328;19.972;2022-12-15T07:19:04;100061.19;;;3.51;96.70
73063;BME280;61230;46.328;19.972;2022-12-15T07:21:32;100061.88;;;3.53;96.50
73063;BME280;61230;46.328;19.972;2022-12-15T07:23:59;100055.75;;;3.54;96.42
73063;BME280;61230;46.328;19.972;2022-12-15T07:26:28;100052.12;;;3.57;96.14
73063;BME280;61230;46.328;19.972;2022-12-15T07:28:57;100058.75;;;3.61;95.82
73063;BME280;61230;46.328;19.972;2022-12-15T07:31:24;100061.97;;;3.64;95.74
73063;BME280;61230;46.328;19.972;2022-12-15T07:33:52;100061.56;;;3.70;95.39
73063;BME280;61230;46.328;19.972;2022-12-15T07:36:21;100061.34;;;3.73;95.39
73063;BME280;61230;46.328;19.972;2022-12-15T07:38:49;100066.12;;;3.79;94.94
73063;BME280;61230;46.328;19.972;2022-12-15T07:41:18;100057.50;;;3.66;94.68
73063;BME280;61230;46.328;19.972;2022-12-15T07:43:47;100067.78;;;3.80;94.14
73063;BME280;61230;46.328;19.972;2022-12-15T07:46:16;100065.72;;;3.85;94.14
73063;BME280;61230;46.328;19.972;2022-12-15T07:48:44;100076.97;;;3.86;94.11
73063;BME280;61230;46.328;19.972;2022-12-15T07:51:21;100085.06;;;3.94;94.19
73063;BME280;61230;46.328;19.972;2022-12-15T07:53:52;100096.91;;;3.98;94.29
73063;BME280;61230;46.328;19.972;2022-12-15T07:56:20;100106.34;;;4.12;94.31
73063;BME280;61230;46.328;19.972;2022-12-15T07:58:47;100107.09;;;4.14;93.20
73063;BME280;61230;46.328;19.972;2022-12-15T08:01:15;100112.19;;;4.15;93.41
73063;BME280;61230;46.328;19.972;2022-12-15T08:03:43;100104.69;;;4.11;93.49
73063;BME280;61230;46.328;19.972;2022-12-15T08:06:12;100108.31;;;4.21;93.09
73063;BME280;61230;46.328;19.972;2022-12-15T08:08:42;100110.69;;;4.24;93.02
73063;BME280;61230;46.328;19.972;2022-12-15T08:11:12;100116.62;;;4.26;92.92
73063;BME280;61230;46.328;19.972;2022-12-15T08:13:41;100125.81;;;4.31;92.26
73063;BME280;61230;46.328;19.972;2022-12-15T08:16:33;100118.78;;;4.32;91.69
73063;BME280;61230;46.328;19.972;2022-12-15T08:19:04;100128.41;;;4.31;91.65
73063;BME280;61230;46.328;19.972;2022-12-15T08:21:32;100143.69;;;4.36;91.59
73063;BME280;61230;46.328;19.972;2022-12-15T08:24:00;100139.63;;;4.32;91.78
73063;BME280;61230;46.328;19.972;2022-12-15T08:26:27;100138.50;;;4.36;91.47
73063;BME280;61230;46.328;19.972;2022-12-15T08:29:03;100129.22;;;4.32;91.26
73063;BME280;61230;46.328;19.972;2022-12-15T08:31:51;100140.03;;;4.38;90.41
73063;BME280;61230;46.328;19.972;2022-12-15T08:34:19;100140.53;;;4.43;90.61
73063;BME280;61230;46.328;19.972;2022-12-15T08:36:47;100132.41;;;4.48;90.99
73063;BME280;61230;46.328;19.972;2022-12-15T08:39:14;100131.25;;;4.52;90.90
73063;BME280;61230;46.328;19.972;2022-12-15T08:41:43;100136.94;;;4.57;90.92
73063;BME280;61230;46.328;19.972;2022-12-15T08:44:11;100127.72;;;4.53;90.34
73063;BME280;61230;46.328;19.972;2022-12-15T08:46:38;100142.91;;;4.59;89.07
73063;BME280;61230;46.328;19.972;2022-12-15T08:49:06;100144.12;;;4.66;88.98
73063;BME280;61230;46.328;19.972;2022-12-15T08:51:35;100155.72;;;4.62;88.81
73063;BME280;61230;46.328;19.972;2022-12-15T08:54:02;100159.03;;;4.64;88.58
73063;BME280;61230;46.328;19.972;2022-12-15T08:56:30;100152.16;;;4.63;88.69
73063;BME280;61230;46.328;19.972;2022-12-15T08:58:59;100158.41;;;4.60;88.98
73063;BME280;61230;46.328;19.972;2022-12-15T09:01:29;100168.84;;;4.60;89.37
73063;BME280;61230;46.328;19.972;2022-12-15T09:03:58;100174.44;;;4.67;89.59
73063;BME280;61230;46.328;19.972;2022-12-15T09:06:30;100173.41;;;4.70;89.31
73063;BME280;61230;46.328;19.972;2022-12-15T09:09:02;100167.97;;;4.73;89.46
73063;BME280;61230;46.328;19.972;2022-12-15T09:11:30;100155.72;;;4.62;89.01
73063;BME280;61230;46.328;19.972;2022-12-15T09:13:58;100171.00;;;4.67;89.06
73063;BME280;61230;46.328;19.972;2022-12-15T09:16:26;100185.72;;;4.68;89.09
73063;BME280;61230;46.328;19.972;2022-12-15T09:18:57;100168.84;;;4.60;89.18
73063;BME280;61230;46.328;19.972;2022-12-15T09:21:27;100163.41;;;4.63;89.25
73063;BME280;61230;46.328;19.972;2022-12-15T09:23:57;100161.75;;;4.62;89.93
73063;BME280;61230;46.328;19.972;2022-12-15T09:26:32;100164.47;;;4.61;89.42
73063;BME280;61230;46.328;19.972;2022-12-15T09:29:00;100164.25;;;4.64;89.36
73063;BME280;61230;46.328;19.972;2022-12-15T09:31:31;100171.00;;;4.67;89.05
73063;BME280;61230;46.328;19.972;2022-12-15T09:34:00;100179.87;;;4.64;88.70
73063;BME280;61230;46.328;19.972;2022-12-15T09:36:28;100176.72;;;4.72;88.58
73063;BME280;61230;46.328;19.972;2022-12-15T09:38:58;100181.94;;;4.72;88.84
73063;BME280;61230;46.328;19.972;2022-12-15T09:41:31;100170.72;;;4.58;88.59
73063;BME280;61230;46.328;19.972;2022-12-15T09:46:42;100191.75;;;4.68;89.20
73063;BME280;61230;46.328;19.972;2022-12-15T09:52:00;100179.00;;;4.76;89.52
73063;BME280;61230;46.328;19.972;2022-12-15T09:54:35;100175.22;;;4.80;89.20
73063;BME280;61230;46.328;19.972;2022-12-15T09:57:26;100183.03;;;4.80;89.77
73063;BME280;61230;46.328;19.972;2022-12-15T10:00:04;100173.94;;;4.86;88.97
73063;BME280;61230;46.328;19.972;2022-12-15T10:02:58;100175.84;;;4.84;88.92
73063;BME280;61230;46.328;19.972;2022-12-15T10:09:00;100176.78;;;4.83;88.37
73063;BME280;61230;46.328;19.972;2022-12-15T10:11:39;100167.69;;;4.88;88.68
73063;BME280;61230;46.328;19.972;2022-12-15T10:14:20;100153.88;;;4.75;89.45
73063;BME280;61230;46.328;19.972;2022-12-15T10:19:46;100155.22;;;4.81;89.40
73063;BME280;61230;46.328;19.972;2022-12-15T10:22:23;100156.63;;;4.74;90.10
73063;BME280;61230;46.328;19.972;2022-12-15T10:24:53;100152.37;;;4.60;90.86
73063;BME280;61230;46.328;19.972;2022-12-15T10:30:20;100154.66;;;4.88;90.79
73063;BME280;61230;46.328;19.972;2022-12-15T10:33:17;100162.44;;;5.01;90.37
73063;BME280;61230;46.328;19.972;2022-12-15T10:35:46;100174.09;;;5.08;89.77
73063;BME280;61230;46.328;19.972;2022-12-15T10:41:01;100165.53;;;5.06;91.17
73063;BME280;61230;46.328;19.972;2022-12-15T10:43:49;100170.88;;;5.04;92.32
73063;BME280;61230;46.328;19.972;2022-12-15T10:46:26;100167.06;;;5.08;92.04
73063;BME280;61230;46.328;19.972;2022-12-15T10:48:58;100164.19;;;5.00;92.24
73063;BME280;61230;46.328;19.972;2022-12-15T10:51:31;100164.38;;;4.86;92.14
73063;BME280;61230;46.328;19.972;2022-12-15T10:56:28;100176.22;;;5.14;91.59
73063;BME280;61230;46.328;19.972;2022-12-15T10:59:05;100182.06;;;5.17;91.70
73063;BME280;61230;46.328;19.972;2022-12-15T11:01:48;100188.31;;;5.15;91.56
73063;BME280;61230;46.328;19.972;2022-12-15T11:04:35;100192.25;;;5.20;91.07
73063;BME280;61230;46.328;19.972;2022-12-15T11:07:16;100188.50;;;5.01;92.46
73063;BME280;61230;46.328;19.972;2022-12-15T11:09:45;100176.44;;;5.11;92.19
73063;BME280;61230;46.328;19.972;2022-12-15T11:12:19;100177.13;;;5.02;93.40
73063;BME280;61230;46.328;19.972;2022-12-15T11:20:58;100156.09;;;4.92;92.47
73063;BME280;61230;46.328;19.972;2022-12-15T11:23:31;100151.09;;;5.13;92.29
73063;BME280;61230;46.328;19.972;2022-12-15T11:26:05;100151.66;;;5.05;92.28
73063;BME280;61230;46.328;19.972;2022-12-15T11:28:47;100148.16;;;5.17;91.82
73063;BME280;61230;46.328;19.972;2022-12-15T11:31:31;100157.31;;;5.34;90.89
73063;BME280;61230;46.328;19.972;2022-12-15T11:34:02;100156.63;;;5.32;91.73
73063;BME280;61230;46.328;19.972;2022-12-15T11:39:36;100160.62;;;5.25;90.36
73063;BME280;61230;46.328;19.972;2022-12-15T11:42:23;100174.53;;;5.37;90.74
73063;BME280;61230;46.328;19.972;2022-12-15T11:56:46;100160.47;;;5.15;92.00
73063;BME280;61230;46.328;19.972;2022-12-15T12:02:15;100156.59;;;5.21;91.91
73063;BME280;61230;46.328;19.972;2022-12-15T12:10:47;100114.53;;;5.48;91.49
73063;BME280;61230;46.328;19.972;2022-12-15T12:13:41;100130.72;;;5.53;91.63
73063;BME280;61230;46.328;19.972;2022-12-15T12:19:16;100133.09;;;5.67;91.92
73063;BME280;61230;46.328;19.972;2022-12-15T12:21:48;100138.31;;;5.56;90.40
73063;BME280;61230;46.328;19.972;2022-12-15T12:24:29;100135.28;;;5.38;91.88
73063;BME280;61230;46.328;19.972;2022-12-15T12:27:22;100124.47;;;5.32;91.66
73063;BME280;61230;46.328;19.972;2022-12-15T12:30:18;100126.25;;;5.31;92.48
73063;BME280;61230;46.328;19.972;2022-12-15T12:35:49;100112.91;;;5.58;92.17
73063;BME280;61230;46.328;19.972;2022-12-15T12:38:25;100108.63;;;5.46;91.67
73063;BME280;61230;46.328;19.972;2022-12-15T12:43:46;100122.06;;;5.63;90.97
73063;BME280;61230;46.328;19.972;2022-12-15T12:46:33;100119.81;;;5.70;91.23
73063;BME280;61230;46.328;19.972;2022-12-15T12:49:13;100117.53;;;5.65;91.17
73063;BME280;61230;46.328;19.972;2022-12-15T12:51:52;100089.66;;;5.55;91.77
73063;BME280;61230;46.328;19.972;2022-12-15T12:59:39;100114.38;;;5.73;90.90
73063;BME280;61230;46.328;19.972;2022-12-15T13:05:22;100124.03;;;5.38;91.91
73063;BME280;61230;46.328;19.972;2022-12-15T13:10:41;100106.97;;;5.45;92.75
73063;BME280;61230;46.328;19.972;2022-12-15T13:16:21;100125.59;;;5.62;91.43
73063;BME280;61230;46.328;19.972;2022-12-15T13:19:08;100135.97;;;5.75;90.94
73063;BME280;61230;46.328;19.972;2022-12-15T13:32:53;100164.81;;;5.85;90.18
73063;BME280;61230;46.328;19.972;2022-12-15T13:35:25;100159.81;;;5.82;90.35
73063;BME280;61230;46.328;19.972;2022-12-15T13:37:56;100148.06;;;5.76;91.29
73063;BME280;61230;46.328;19.972;2022-12-15T13:48:12;100160.16;;;5.77;91.24
73063;BME280;61230;46.328;19.972;2022-12-15T13:50:48;100156.63;;;5.78;91.19
73063;BME280;61230;46.328;19.972;2022-12-15T13:53:21;100159.22;;;5.78;90.69
73063;BME280;61230;46.328;19.972;2022-12-15T13:58:38;100148.31;;;5.73;91.64
73063;BME280;61230;46.328;19.972;2022-12-15T14:01:28;100150.06;;;5.72;91.36
73063;BME280;61230;46.328;19.972;2022-12-15T14:04:17;100140.69;;;5.59;91.44
73063;BME280;61230;46.328;19.972;2022-12-15T14:06:56;100162.03;;;5.53;91.93
73063;BME280;61230;46.328;19.972;2022-12-15T14:09:29;100161.44;;;5.60;91.97
73063;BME280;61230;46.328;19.972;2022-12-15T14:12:00;100164.75;;;5.62;91.59
73063;BME280;61230;46.328;19.972;2022-12-15T14:14:31;100168.91;;;5.65;91.73
73063;BME280;61230;46.328;19.972;2022-12-15T14:17:01;100172.47;;;5.64;92.06
73063;BME280;61230;46.328;19.972;2022-12-15T14:19:38;100158.81;;;5.49;92.83
73063;BME280;61230;46.328;19.972;2022-12-15T14:22:29;100167.81;;;5.56;92.84
73063;BME280;61230;46.328;19.972;2022-12-15T14:25:02;100176.47;;;5.57;92.25
73063;BME280;61230;46.328;19.972;2022-12-15T14:27:38;100178.88;;;5.60;92.42
73063;BME280;61230;46.328;19.972;2022-12-15T14:30:17;100177.31;;;5.57;92.37
73063;BME280;61230;46.328;19.972;2022-12-15T14:32:49;100176.47;;;5.57;92.39
73063;BME280;61230;46.328;19.972;2022-12-15T14:35:33;100178.03;;;5.59;92.58
73063;BME280;61230;46.328;19.972;2022-12-15T14:38:07;100180.78;;;5.58;92.29
73063;BME280;61230;46.328;19.972;2022-12-15T14:40:39;100185.16;;;5.57;93.12
73063;BME280;61230;46.328;19.972;2022-12-15T14:43:19;100183.81;;;5.41;93.37
73063;BME280;61230;46.328;19.972;2022-12-15T14:45:55;100186.63;;;5.38;93.29
73063;BME280;61230;46.328;19.972;2022-12-15T14:48:34;100183.41;;;5.34;94.32
73063;BME280;61230;46.328;19.972;2022-12-15T14:51:10;100182.75;;;5.43;93.93
73063;BME280;61230;46.328;19.972;2022-12-15T14:53:41;100171.16;;;5.23;94.25
73063;BME280;61230;46.328;19.972;2022-12-15T14:59:18;100193.81;;;5.23;94.44
73063;BME280;61230;46.328;19.972;2022-12-15T15:01:52;100194.41;;;5.27;94.68
73063;BME280;61230;46.328;19.972;2022-12-15T15:04:29;100176.22;;;5.14;94.98
73063;BME280;61230;46.328;19.972;2022-12-15T15:07:01;100195.53;;;5.11;95.99
73063;BME280;61230;46.328;19.972;2022-12-15T15:14:28;100198.81;;;5.26;95.59
73063;BME280;61230;46.328;19.972;2022-12-15T15:16:59;100208.41;;;5.26;96.36
73063;BME280;61230;46.328;19.972;2022-12-15T15:19:29;100209.94;;;5.28;96.49
73063;BME280;61230;46.328;19.972;2022-12-15T15:22:01;100199.87;;;5.23;96.95
73063;BME280;61230;46.328;19.972;2022-12-15T15:24:33;100211.75;;;5.28;96.51
73063;BME280;61230;46.328;19.972;2022-12-15T15:30:06;100203.88;;;5.16;97.16
73063;BME280;61230;46.328;19.972;2022-12-15T15:32:57;100195.97;;;5.29;96.29
73063;BME280;61230;46.328;19.972;2022-12-15T15:35:29;100196.09;;;5.28;96.41
73063;BME280;61230;46.328;19.972;2022-12-15T15:38:21;100208.91;;;5.31;95.96
73063;BME280;61230;46.328;19.972;2022-12-15T15:40:55;100208.31;;;5.27;97.21
73063;BME280;61230;46.328;19.972;2022-12-15T15:43:24;100201.97;;;5.18;97.80